Sunday, February 17, 2019, 3:08 PM EST
Back to Local

KMSS, Massena International -richards Fld

Location: Massena, NY, United States Lat: 44.933
Local Time: 3:08 PM EST (20:08 GMT) Lon: -74.85
Time Zone: US/Eastern Elev: 213 ft

Show me the last for .
Show Decoded

2019-02-17 14:53 METAR KMSS 171953Z AUTO VRB03KT 10SM CLR M07/M16 A3016 RMK AO2 SLP222 T10721161
                 =
2019-02-17 13:53 METAR KMSS 171853Z AUTO 00000KT 10SM CLR M08/M16 A3018 RMK AO2 SLP231 T10831161
                 =
2019-02-17 12:53 METAR KMSS 171753Z AUTO 00000KT 10SM CLR M08/M16 A3018 RMK AO2 SLP229 T10831161
                 11083 21228 58020 =
2019-02-17 11:53 METAR KMSS 171653Z AUTO 00000KT 10SM CLR M10/M17 A3022 RMK AO2 SLP244 T11001167
                 =
2019-02-17 10:53 METAR KMSS 171553Z AUTO 00000KT 10SM CLR M11/M16 A3025 RMK AO2 SLP252 T11061161
                 =
2019-02-17 09:53 METAR KMSS 171453Z AUTO 00000KT 10SM CLR M13/M16 A3024 RMK AO2 SLP249 T11281161
                 50001 =
2019-02-17 08:53 METAR KMSS 171353Z AUTO 00000KT 10SM CLR M18/M19 A3025 RMK AO2 SLP254 T11781189
                 =
2019-02-17 07:53 METAR KMSS 171253Z AUTO 00000KT 10SM CLR M21/M22 A3025 RMK AO2 SLP252 T12111222
                 =
2019-02-17 06:53 METAR KMSS 171153Z AUTO 00000KT 10SM CLR M22/M23 A3024 RMK AO2 SLP250 I6000
                 T12171233 11144 21222 53014 =
2019-02-17 05:53 METAR KMSS 171053Z AUTO 00000KT 10SM CLR M21/M23 A3021 RMK AO2 SLP239 T12111233
                 =
2019-02-17 04:53 METAR KMSS 170953Z AUTO 00000KT 10SM CLR M20/M22 A3020 RMK AO2 SLP236 T12001217
                 =
2019-02-17 03:53 METAR KMSS 170853Z AUTO 00000KT 10SM CLR M20/M22 A3020 RMK AO2 SLP236 I1000
                 I3000 T12001217 53011 =
2019-02-17 02:53 METAR KMSS 170753Z AUTO 00000KT 10SM FEW031 M18/M21 A3018 RMK AO2 SLP229
                 T11831211 =
2019-02-17 01:53 METAR KMSS 170653Z AUTO 21003KT 10SM CLR M17/M18 A3017 RMK AO2 SLP226 T11671183
                 =
2019-02-17 00:53 METAR KMSS 170553Z AUTO 00000KT 10SM CLR M14/M17 A3016 RMK AO2 SLP223 T11441167
                 11067 21150 53018 =
2019-02-16 23:53 METAR KMSS 170453Z AUTO 31004KT 10SM CLR M12/M15 A3014 RMK AO2 SLP215 T11171150
                 410111117 =
2019-02-16 22:53 METAR KMSS 170353Z AUTO 30004KT 10SM CLR M10/M14 A3012 RMK AO2 SLP209 T11001144
                 =
2019-02-16 21:53 METAR KMSS 170253Z AUTO 30004KT 10SM CLR M09/M14 A3011 RMK AO2 SLP204 T10891139
                 51011 =
2019-02-16 20:53 METAR KMSS 170153Z AUTO 32006KT 10SM CLR M08/M13 A3010 RMK AO2 SLP200 T10781133
                 =
2019-02-16 19:53 METAR KMSS 170053Z AUTO 31008KT 10SM CLR M07/M13 A3009 RMK AO2 SLP198 T10721133
                 =
2019-02-16 18:53 METAR KMSS 162353Z AUTO 29006KT 10SM CLR M07/M13 A3008 RMK AO2 SLP192 T10671128
                 11039 21067 53025 =
2019-02-16 17:53 METAR KMSS 162253Z AUTO 28006KT 10SM CLR M06/M13 A3005 RMK AO2 SLP184 T10611128
                 =
2019-02-16 16:53 METAR KMSS 162153Z AUTO 28009KT 10SM CLR M05/M12 A3002 RMK AO2 SLP174 T10501122
                 =
2019-02-16 15:53 METAR KMSS 162053Z AUTO 28014KT 10SM CLR M04/M12 A3000 RMK AO2 SLP166 T10441122
                 53023 =

Support USWX by starting your Amazon purchase here.